sensor_id;sensor_type;location;lat;lon;timestamp;temperature;humidity
17659;DHT22;8948;51.534;8.262;2023-02-11T00:03:23;6.50;73.60
17659;DHT22;8948;51.534;8.262;2023-02-11T00:08:24;6.60;73.60
17659;DHT22;8948;51.534;8.262;2023-02-11T00:13:25;6.40;73.70
17659;DHT22;8948;51.534;8.262;2023-02-11T00:18:26;6.40;73.60
17659;DHT22;8948;51.534;8.262;2023-02-11T00:23:28;6.30;73.90
17659;DHT22;8948;51.534;8.262;2023-02-11T00:28:28;6.30;74.10
17659;DHT22;8948;51.534;8.262;2023-02-11T00:33:29;6.30;73.80
17659;DHT22;8948;51.534;8.262;2023-02-11T00:38:29;6.30;73.80
17659;DHT22;8948;51.534;8.262;2023-02-11T00:43:30;6.30;73.90
17659;DHT22;8948;51.534;8.262;2023-02-11T00:48:31;6.40;73.50
17659;DHT22;8948;51.534;8.262;2023-02-11T00:53:32;6.40;73.20
17659;DHT22;8948;51.534;8.262;2023-02-11T00:58:33;6.40;73.40
17659;DHT22;8948;51.534;8.262;2023-02-11T01:03:34;6.50;73.00
17659;DHT22;8948;51.534;8.262;2023-02-11T01:08:35;6.50;72.70
17659;DHT22;8948;51.534;8.262;2023-02-11T01:13:36;6.50;72.90
17659;DHT22;8948;51.534;8.262;2023-02-11T01:18:37;6.50;72.40
17659;DHT22;8948;51.534;8.262;2023-02-11T01:23:38;6.50;72.40
17659;DHT22;8948;51.534;8.262;2023-02-11T01:28:39;6.60;72.20
17659;DHT22;8948;51.534;8.262;2023-02-11T01:33:39;6.60;71.90
17659;DHT22;8948;51.534;8.262;2023-02-11T01:38:40;6.60;72.10
17659;DHT22;8948;51.534;8.262;2023-02-11T01:43:44;6.60;72.10
17659;DHT22;8948;51.534;8.262;2023-02-11T01:48:51;6.60;72.20
17659;DHT22;8948;51.534;8.262;2023-02-11T01:53:54;6.50;72.50
17659;DHT22;8948;51.534;8.262;2023-02-11T01:59:23;6.50;72.30
17659;DHT22;8948;51.534;8.262;2023-02-11T02:04:29;6.40;73.00
17659;DHT22;8948;51.534;8.262;2023-02-11T02:09:40;6.50;73.00
17659;DHT22;8948;51.534;8.262;2023-02-11T02:14:41;6.40;74.00
17659;DHT22;8948;51.534;8.262;2023-02-11T02:20:24;6.40;74.30
17659;DHT22;8948;51.534;8.262;2023-02-11T02:25:47;6.30;74.50
17659;DHT22;8948;51.534;8.262;2023-02-11T02:41:32;6.20;74.70
17659;DHT22;8948;51.534;8.262;2023-02-11T02:46:34;6.20;74.10
17659;DHT22;8948;51.534;8.262;2023-02-11T02:52:11;6.30;74.10
17659;DHT22;8948;51.534;8.262;2023-02-11T03:07:31;6.20;74.90
17659;DHT22;8948;51.534;8.262;2023-02-11T03:12:36;6.30;74.50
17659;DHT22;8948;51.534;8.262;2023-02-11T03:17:40;6.30;74.70
17659;DHT22;8948;51.534;8.262;2023-02-11T03:23:05;6.30;74.90
17659;DHT22;8948;51.534;8.262;2023-02-11T03:28:34;6.30;74.70
17659;DHT22;8948;51.534;8.262;2023-02-11T03:38:49;6.30;74.60
17659;DHT22;8948;51.534;8.262;2023-02-11T03:43:56;6.40;74.60
17659;DHT22;8948;51.534;8.262;2023-02-11T03:49:02;6.30;75.00
17659;DHT22;8948;51.534;8.262;2023-02-11T03:54:06;6.30;74.90
17659;DHT22;8948;51.534;8.262;2023-02-11T03:59:08;6.30;75.10
17659;DHT22;8948;51.534;8.262;2023-02-11T04:04:09;6.30;75.30
17659;DHT22;8948;51.534;8.262;2023-02-11T04:09:10;6.30;75.60
17659;DHT22;8948;51.534;8.262;2023-02-11T04:14:11;6.30;75.60
17659;DHT22;8948;51.534;8.262;2023-02-11T04:19:11;6.30;75.80
17659;DHT22;8948;51.534;8.262;2023-02-11T04:24:12;6.30;75.60
17659;DHT22;8948;51.534;8.262;2023-02-11T04:29:12;6.40;75.60
17659;DHT22;8948;51.534;8.262;2023-02-11T04:34:13;6.40;75.70
17659;DHT22;8948;51.534;8.262;2023-02-11T04:39:14;6.40;75.90
17659;DHT22;8948;51.534;8.262;2023-02-11T04:44:15;6.40;76.00
17659;DHT22;8948;51.534;8.262;2023-02-11T04:49:16;6.40;76.30
17659;DHT22;8948;51.534;8.262;2023-02-11T04:54:17;6.40;76.30
17659;DHT22;8948;51.534;8.262;2023-02-11T04:59:18;6.50;76.00
17659;DHT22;8948;51.534;8.262;2023-02-11T05:04:18;6.40;76.70
17659;DHT22;8948;51.534;8.262;2023-02-11T05:09:19;6.40;76.80
17659;DHT22;8948;51.534;8.262;2023-02-11T05:14:19;6.40;77.20
17659;DHT22;8948;51.534;8.262;2023-02-11T05:19:20;6.30;77.70
17659;DHT22;8948;51.534;8.262;2023-02-11T05:24:20;6.30;78.10
17659;DHT22;8948;51.534;8.262;2023-02-11T05:29:21;6.20;78.70
17659;DHT22;8948;51.534;8.262;2023-02-11T05:34:21;6.20;79.00
17659;DHT22;8948;51.534;8.262;2023-02-11T05:39:22;6.20;79.00
17659;DHT22;8948;51.534;8.262;2023-02-11T05:44:23;6.20;79.00
17659;DHT22;8948;51.534;8.262;2023-02-11T05:49:23;6.20;78.90
17659;DHT22;8948;51.534;8.262;2023-02-11T05:54:24;6.20;79.00
17659;DHT22;8948;51.534;8.262;2023-02-11T05:59:24;6.20;79.10
17659;DHT22;8948;51.534;8.262;2023-02-11T06:04:25;6.30;78.90
17659;DHT22;8948;51.534;8.262;2023-02-11T06:09:26;6.40;79.10
17659;DHT22;8948;51.534;8.262;2023-02-11T06:14:26;6.50;79.10
17659;DHT22;8948;51.534;8.262;2023-02-11T06:19:27;6.50;78.60
17659;DHT22;8948;51.534;8.262;2023-02-11T06:24:27;6.50;78.90
17659;DHT22;8948;51.534;8.262;2023-02-11T06:29:28;6.40;79.30
17659;DHT22;8948;51.534;8.262;2023-02-11T06:34:29;6.40;79.70
17659;DHT22;8948;51.534;8.262;2023-02-11T06:39:30;6.30;79.40
17659;DHT22;8948;51.534;8.262;2023-02-11T06:44:31;6.30;79.70
17659;DHT22;8948;51.534;8.262;2023-02-11T06:49:32;6.10;79.90
17659;DHT22;8948;51.534;8.262;2023-02-11T06:54:32;6.10;80.40
17659;DHT22;8948;51.534;8.262;2023-02-11T06:59:33;6.00;80.90
17659;DHT22;8948;51.534;8.262;2023-02-11T07:04:33;6.00;80.80
17659;DHT22;8948;51.534;8.262;2023-02-11T07:09:34;6.00;80.90
17659;DHT22;8948;51.534;8.262;2023-02-11T07:14:34;6.10;80.60
17659;DHT22;8948;51.534;8.262;2023-02-11T07:19:35;6.10;81.00
17659;DHT22;8948;51.534;8.262;2023-02-11T07:24:35;6.10;80.50
17659;DHT22;8948;51.534;8.262;2023-02-11T07:29:36;6.20;80.50
17659;DHT22;8948;51.534;8.262;2023-02-11T07:34:36;6.20;80.30
17659;DHT22;8948;51.534;8.262;2023-02-11T07:39:37;6.10;80.90
17659;DHT22;8948;51.534;8.262;2023-02-11T07:44:38;6.10;81.00
17659;DHT22;8948;51.534;8.262;2023-02-11T07:49:38;6.10;80.80
17659;DHT22;8948;51.534;8.262;2023-02-11T07:54:39;6.10;81.40
17659;DHT22;8948;51.534;8.262;2023-02-11T07:59:40;6.20;81.20
17659;DHT22;8948;51.534;8.262;2023-02-11T08:04:40;6.20;81.00
17659;DHT22;8948;51.534;8.262;2023-02-11T08:09:41;6.30;81.00
17659;DHT22;8948;51.534;8.262;2023-02-11T08:14:41;6.20;81.10
17659;DHT22;8948;51.534;8.262;2023-02-11T08:19:42;6.30;81.50
17659;DHT22;8948;51.534;8.262;2023-02-11T08:24:43;6.20;81.80
17659;DHT22;8948;51.534;8.262;2023-02-11T08:29:43;6.20;81.70
17659;DHT22;8948;51.534;8.262;2023-02-11T08:34:44;6.30;82.00
17659;DHT22;8948;51.534;8.262;2023-02-11T08:39:44;6.20;82.20
17659;DHT22;8948;51.534;8.262;2023-02-11T08:44:46;6.30;82.30
17659;DHT22;8948;51.534;8.262;2023-02-11T08:49:47;6.30;81.60
17659;DHT22;8948;51.534;8.262;2023-02-11T08:54:47;6.30;82.20
17659;DHT22;8948;51.534;8.262;2023-02-11T08:59:48;6.30;82.50
17659;DHT22;8948;51.534;8.262;2023-02-11T09:04:48;6.30;82.80
17659;DHT22;8948;51.534;8.262;2023-02-11T09:09:49;6.40;82.80
17659;DHT22;8948;51.534;8.262;2023-02-11T09:14:49;6.50;82.10
17659;DHT22;8948;51.534;8.262;2023-02-11T09:19:50;6.50;82.30
17659;DHT22;8948;51.534;8.262;2023-02-11T09:24:51;6.50;82.60
17659;DHT22;8948;51.534;8.262;2023-02-11T09:29:51;6.60;82.30
17659;DHT22;8948;51.534;8.262;2023-02-11T09:34:52;6.70;82.30
17659;DHT22;8948;51.534;8.262;2023-02-11T09:39:52;6.70;82.30
17659;DHT22;8948;51.534;8.262;2023-02-11T09:44:53;6.80;82.30
17659;DHT22;8948;51.534;8.262;2023-02-11T09:55:09;7.00;82.00
17659;DHT22;8948;51.534;8.262;2023-02-11T10:00:35;7.00;82.00
17659;DHT22;8948;51.534;8.262;2023-02-11T10:06:04;7.10;82.00
17659;DHT22;8948;51.534;8.262;2023-02-11T10:11:29;7.10;81.80
17659;DHT22;8948;51.534;8.262;2023-02-11T10:26:46;7.30;81.60
17659;DHT22;8948;51.534;8.262;2023-02-11T10:31:49;7.40;81.00
17659;DHT22;8948;51.534;8.262;2023-02-11T10:36:49;7.40;80.80
17659;DHT22;8948;51.534;8.262;2023-02-11T10:42:01;7.30;81.10
17659;DHT22;8948;51.534;8.262;2023-02-11T10:47:20;7.40;80.90
17659;DHT22;8948;51.534;8.262;2023-02-11T10:52:23;7.50;80.60
17659;DHT22;8948;51.534;8.262;2023-02-11T11:02:33;7.60;80.40
17659;DHT22;8948;51.534;8.262;2023-02-11T11:07:35;7.70;80.30
17659;DHT22;8948;51.534;8.262;2023-02-11T11:12:46;7.70;80.00
17659;DHT22;8948;51.534;8.262;2023-02-11T11:17:48;7.70;79.90
17659;DHT22;8948;51.534;8.262;2023-02-11T11:22:50;7.70;79.90
17659;DHT22;8948;51.534;8.262;2023-02-11T11:27:53;7.60;80.10
17659;DHT22;8948;51.534;8.262;2023-02-11T11:32:55;7.60;80.50
17659;DHT22;8948;51.534;8.262;2023-02-11T11:37:59;7.60;80.60
17659;DHT22;8948;51.534;8.262;2023-02-11T11:43:06;7.60;80.70
17659;DHT22;8948;51.534;8.262;2023-02-11T11:48:36;7.50;80.70
17659;DHT22;8948;51.534;8.262;2023-02-11T11:53:53;7.60;80.50
17659;DHT22;8948;51.534;8.262;2023-02-11T11:59:00;7.60;80.50
17659;DHT22;8948;51.534;8.262;2023-02-11T12:26:01;7.80;79.90
17659;DHT22;8948;51.534;8.262;2023-02-11T12:58:30;8.00;79.50
17659;DHT22;8948;51.534;8.262;2023-02-11T13:03:46;8.00;79.30
17659;DHT22;8948;51.534;8.262;2023-02-11T13:08:51;8.10;79.10
17659;DHT22;8948;51.534;8.262;2023-02-11T13:13:56;8.10;78.90
17659;DHT22;8948;51.534;8.262;2023-02-11T13:24:30;8.10;78.90
17659;DHT22;8948;51.534;8.262;2023-02-11T13:34:58;7.90;79.50
17659;DHT22;8948;51.534;8.262;2023-02-11T13:45:26;7.90;79.30
17659;DHT22;8948;51.534;8.262;2023-02-11T13:50:31;8.00;79.00
17659;DHT22;8948;51.534;8.262;2023-02-11T13:55:35;8.00;79.30
17659;DHT22;8948;51.534;8.262;2023-02-11T14:05:36;8.00;79.10
17659;DHT22;8948;51.534;8.262;2023-02-11T14:10:59;8.00;79.30
17659;DHT22;8948;51.534;8.262;2023-02-11T14:16:15;8.00;79.50
17659;DHT22;8948;51.534;8.262;2023-02-11T14:26:43;8.00;79.40
17659;DHT22;8948;51.534;8.262;2023-02-11T14:42:18;7.90;79.50
17659;DHT22;8948;51.534;8.262;2023-02-11T14:47:25;7.90;79.40
17659;DHT22;8948;51.534;8.262;2023-02-11T14:52:30;8.00;79.50
17659;DHT22;8948;51.534;8.262;2023-02-11T14:57:31;8.00;79.40
17659;DHT22;8948;51.534;8.262;2023-02-11T15:02:35;7.90;79.60
17659;DHT22;8948;51.534;8.262;2023-02-11T15:07:36;8.00;79.40
17659;DHT22;8948;51.534;8.262;2023-02-11T15:12:37;8.00;79.50
17659;DHT22;8948;51.534;8.262;2023-02-11T15:17:37;8.00;79.10
17659;DHT22;8948;51.534;8.262;2023-02-11T15:22:38;8.00;79.40
17659;DHT22;8948;51.534;8.262;2023-02-11T15:27:42;8.00;79.20
17659;DHT22;8948;51.534;8.262;2023-02-11T15:32:43;8.00;78.90
17659;DHT22;8948;51.534;8.262;2023-02-11T15:37:44;8.10;78.90
17659;DHT22;8948;51.534;8.262;2023-02-11T15:42:53;8.10;78.70
17659;DHT22;8948;51.534;8.262;2023-02-11T15:48:15;8.10;78.80
17659;DHT22;8948;51.534;8.262;2023-02-11T15:53:36;8.00;79.10
17659;DHT22;8948;51.534;8.262;2023-02-11T15:58:41;7.90;79.40
17659;DHT22;8948;51.534;8.262;2023-02-11T16:03:43;7.90;79.50
17659;DHT22;8948;51.534;8.262;2023-02-11T16:09:00;7.90;79.60
17659;DHT22;8948;51.534;8.262;2023-02-11T16:19:42;8.00;79.30
17659;DHT22;8948;51.534;8.262;2023-02-11T16:24:46;8.00;78.90
17659;DHT22;8948;51.534;8.262;2023-02-11T16:29:48;8.00;79.00
17659;DHT22;8948;51.534;8.262;2023-02-11T16:34:50;8.00;78.90
17659;DHT22;8948;51.534;8.262;2023-02-11T16:39:54;7.90;79.00
17659;DHT22;8948;51.534;8.262;2023-02-11T16:44:55;7.90;79.20
17659;DHT22;8948;51.534;8.262;2023-02-11T16:49:56;7.90;79.20
17659;DHT22;8948;51.534;8.262;2023-02-11T16:54:57;7.90;79.20
17659;DHT22;8948;51.534;8.262;2023-02-11T16:59:58;7.80;79.40
17659;DHT22;8948;51.534;8.262;2023-02-11T17:05:07;7.80;79.40
17659;DHT22;8948;51.534;8.262;2023-02-11T17:10:21;7.90;79.10
17659;DHT22;8948;51.534;8.262;2023-02-11T17:15:21;7.90;79.00
17659;DHT22;8948;51.534;8.262;2023-02-11T17:20:22;7.90;78.90
17659;DHT22;8948;51.534;8.262;2023-02-11T17:25:23;7.90;78.90
17659;DHT22;8948;51.534;8.262;2023-02-11T17:30:23;7.90;78.90
17659;DHT22;8948;51.534;8.262;2023-02-11T17:35:24;7.80;79.10
17659;DHT22;8948;51.534;8.262;2023-02-11T17:40:25;7.80;79.40
17659;DHT22;8948;51.534;8.262;2023-02-11T17:45:25;7.80;79.40
17659;DHT22;8948;51.534;8.262;2023-02-11T17:50:26;7.80;79.10
17659;DHT22;8948;51.534;8.262;2023-02-11T17:55:26;7.80;78.90
17659;DHT22;8948;51.534;8.262;2023-02-11T18:00:27;7.80;78.80
17659;DHT22;8948;51.534;8.262;2023-02-11T18:05:33;7.80;78.90
17659;DHT22;8948;51.534;8.262;2023-02-11T18:10:33;7.90;78.80
17659;DHT22;8948;51.534;8.262;2023-02-11T18:15:34;7.90;78.80
17659;DHT22;8948;51.534;8.262;2023-02-11T18:20:35;7.90;78.80
17659;DHT22;8948;51.534;8.262;2023-02-11T18:25:36;7.90;78.40
17659;DHT22;8948;51.534;8.262;2023-02-11T18:30:37;7.90;78.50
17659;DHT22;8948;51.534;8.262;2023-02-11T18:35:38;7.90;78.70
17659;DHT22;8948;51.534;8.262;2023-02-11T18:40:39;7.90;78.70
17659;DHT22;8948;51.534;8.262;2023-02-11T18:45:44;7.90;78.70
17659;DHT22;8948;51.534;8.262;2023-02-11T18:50:45;8.00;78.60
17659;DHT22;8948;51.534;8.262;2023-02-11T18:55:46;8.00;78.40
17659;DHT22;8948;51.534;8.262;2023-02-11T19:00:48;8.00;78.50
17659;DHT22;8948;51.534;8.262;2023-02-11T19:05:49;8.00;78.50
17659;DHT22;8948;51.534;8.262;2023-02-11T19:10:49;8.00;78.50
17659;DHT22;8948;51.534;8.262;2023-02-11T19:15:51;8.00;78.80
17659;DHT22;8948;51.534;8.262;2023-02-11T19:20:51;8.00;78.80
17659;DHT22;8948;51.534;8.262;2023-02-11T19:25:52;8.00;78.70
17659;DHT22;8948;51.534;8.262;2023-02-11T19:30:53;8.00;78.70
17659;DHT22;8948;51.534;8.262;2023-02-11T19:35:53;8.00;78.80
17659;DHT22;8948;51.534;8.262;2023-02-11T19:40:55;8.00;78.80
17659;DHT22;8948;51.534;8.262;2023-02-11T19:45:55;8.00;78.70
17659;DHT22;8948;51.534;8.262;2023-02-11T19:50:56;8.00;78.70
17659;DHT22;8948;51.534;8.262;2023-02-11T19:56:00;8.00;78.60
17659;DHT22;8948;51.534;8.262;2023-02-11T20:01:13;8.00;78.70
17659;DHT22;8948;51.534;8.262;2023-02-11T20:06:16;8.10;78.50
17659;DHT22;8948;51.534;8.262;2023-02-11T20:11:17;8.10;78.50
17659;DHT22;8948;51.534;8.262;2023-02-11T20:16:21;8.10;78.20
17659;DHT22;8948;51.534;8.262;2023-02-11T20:21:24;8.10;78.50
17659;DHT22;8948;51.534;8.262;2023-02-11T20:26:30;8.10;78.10
17659;DHT22;8948;51.534;8.262;2023-02-11T20:31:31;8.20;77.90
17659;DHT22;8948;51.534;8.262;2023-02-11T20:36:33;8.20;77.90
17659;DHT22;8948;51.534;8.262;2023-02-11T20:41:36;8.20;77.90
17659;DHT22;8948;51.534;8.262;2023-02-11T20:46:41;8.20;78.00
17659;DHT22;8948;51.534;8.262;2023-02-11T20:51:42;8.10;78.00
17659;DHT22;8948;51.534;8.262;2023-02-11T20:56:43;8.10;78.00
17659;DHT22;8948;51.534;8.262;2023-02-11T21:01:46;8.10;78.10
17659;DHT22;8948;51.534;8.262;2023-02-11T21:06:51;8.20;78.10
17659;DHT22;8948;51.534;8.262;2023-02-11T21:11:53;8.20;78.20
17659;DHT22;8948;51.534;8.262;2023-02-11T21:16:54;8.20;78.20
17659;DHT22;8948;51.534;8.262;2023-02-11T21:21:55;8.30;78.30
17659;DHT22;8948;51.534;8.262;2023-02-11T21:27:00;8.20;78.70
17659;DHT22;8948;51.534;8.262;2023-02-11T21:32:01;8.20;79.10
17659;DHT22;8948;51.534;8.262;2023-02-11T21:37:01;8.20;79.30
17659;DHT22;8948;51.534;8.262;2023-02-11T21:42:03;8.20;79.90
17659;DHT22;8948;51.534;8.262;2023-02-11T21:47:03;8.20;80.10
17659;DHT22;8948;51.534;8.262;2023-02-11T21:52:04;8.20;80.30
17659;DHT22;8948;51.534;8.262;2023-02-11T21:57:04;8.10;81.00
17659;DHT22;8948;51.534;8.262;2023-02-11T22:02:05;8.10;81.30
17659;DHT22;8948;51.534;8.262;2023-02-11T22:07:06;8.10;81.50
17659;DHT22;8948;51.534;8.262;2023-02-11T22:12:07;8.10;81.60
17659;DHT22;8948;51.534;8.262;2023-02-11T22:17:08;8.10;81.40
17659;DHT22;8948;51.534;8.262;2023-02-11T22:22:08;8.10;81.80
17659;DHT22;8948;51.534;8.262;2023-02-11T22:27:09;8.00;82.40
17659;DHT22;8948;51.534;8.262;2023-02-11T22:32:10;8.10;82.20
17659;DHT22;8948;51.534;8.262;2023-02-11T22:37:11;8.00;82.70
17659;DHT22;8948;51.534;8.262;2023-02-11T22:42:11;8.00;82.90
17659;DHT22;8948;51.534;8.262;2023-02-11T22:47:12;8.00;83.00
17659;DHT22;8948;51.534;8.262;2023-02-11T22:52:12;8.00;83.00
17659;DHT22;8948;51.534;8.262;2023-02-11T22:57:13;8.00;83.20
17659;DHT22;8948;51.534;8.262;2023-02-11T23:02:14;8.00;83.30
17659;DHT22;8948;51.534;8.262;2023-02-11T23:07:14;7.90;83.40
17659;DHT22;8948;51.534;8.262;2023-02-11T23:12:15;8.00;83.10
17659;DHT22;8948;51.534;8.262;2023-02-11T23:17:15;7.90;83.50
17659;DHT22;8948;51.534;8.262;2023-02-11T23:22:16;8.00;83.40
17659;DHT22;8948;51.534;8.262;2023-02-11T23:27:16;8.00;83.50
17659;DHT22;8948;51.534;8.262;2023-02-11T23:32:17;7.90;83.60
17659;DHT22;8948;51.534;8.262;2023-02-11T23:37:18;8.00;83.20
17659;DHT22;8948;51.534;8.262;2023-02-11T23:42:19;7.90;83.70
17659;DHT22;8948;51.534;8.262;2023-02-11T23:47:19;8.00;83.50
17659;DHT22;8948;51.534;8.262;2023-02-11T23:52:20;8.00;83.40
17659;DHT22;8948;51.534;8.262;2023-02-11T23:57:20;8.00;83.40
